createdAt,value
2023-05-25T15:39:20.311Z,50.16
2023-05-25T15:40:20.257Z,48.81
2023-05-25T15:41:20.201Z,47.77
2023-05-25T15:42:21.679Z,47.06
2023-05-25T15:43:20.057Z,46.53
2023-05-25T15:44:19.965Z,46.09
2023-05-25T15:45:19.903Z,45.66
2023-05-25T15:46:19.857Z,45.29
2023-05-25T15:47:19.686Z,44.92
2023-05-25T15:48:19.584Z,44.58
2023-05-25T15:49:19.504Z,44.28
2023-05-25T15:50:19.548Z,44.05
2023-05-25T15:51:19.295Z,43.77
2023-05-25T15:52:19.187Z,43.61
2023-05-25T15:53:19.075Z,43.40
2023-05-25T15:54:18.974Z,43.21
2023-05-25T15:55:18.882Z,43.02
2023-05-25T15:56:18.764Z,42.85
2023-05-25T15:57:18.654Z,42.66
2023-05-25T15:58:18.590Z,42.49
2023-05-25T15:59:18.440Z,42.35
2023-05-25T16:00:18.313Z,42.24
2023-05-25T16:01:18.205Z,42.10
2023-05-25T16:02:18.119Z,41.98
2023-05-25T16:03:18.028Z,41.86
2023-05-25T16:04:17.956Z,41.73
2023-05-25T16:05:17.740Z,41.67
2023-05-25T16:06:17.643Z,41.56
2023-05-25T16:07:17.544Z,41.47
2023-05-25T16:08:17.421Z,41.37
2023-05-25T16:09:17.303Z,41.32
2023-05-25T16:10:17.197Z,41.24
2023-05-25T16:11:17.129Z,41.17
2023-05-25T16:12:16.973Z,41.11
2023-05-25T16:13:16.856Z,41.04
2023-05-25T16:14:16.755Z,41.01
2023-05-25T16:15:16.648Z,40.95
2023-05-25T16:16:16.575Z,40.88
2023-05-25T16:17:16.421Z,40.82
2023-05-25T16:18:16.316Z,40.77
2023-05-25T16:19:16.272Z,40.76
2023-05-25T16:20:16.150Z,40.70
2023-05-25T16:21:15.986Z,40.63
2023-05-25T16:22:15.872Z,40.61
2023-05-25T16:23:15.771Z,40.58
2023-05-25T16:24:15.639Z,40.57
2023-05-25T16:25:15.539Z,40.56
2023-05-25T16:26:15.422Z,40.51
2023-05-25T16:27:15.374Z,40.45
2023-05-25T16:28:15.200Z,40.47
2023-05-25T16:29:15.084Z,40.46
2023-05-25T16:30:14.965Z,40.41
2023-05-25T16:31:14.986Z,40.37
2023-05-25T16:32:14.812Z,40.37
2023-05-25T16:33:14.763Z,40.35
2023-05-25T16:34:14.584Z,40.38
2023-05-25T16:35:14.520Z,40.34
2023-05-25T16:36:14.463Z,40.31
2023-05-25T16:37:14.400Z,40.30
2023-05-25T16:38:14.348Z,40.25
2023-05-25T16:39:14.282Z,40.32
2023-05-25T16:40:14.214Z,40.27
2023-05-25T16:41:14.177Z,40.23
2023-05-25T16:42:14.095Z,40.22
2023-05-25T16:43:14.045Z,40.22
2023-05-25T16:44:13.969Z,40.25
2023-05-25T16:45:13.915Z,40.19
2023-05-25T16:46:13.871Z,40.22
2023-05-25T16:47:13.793Z,40.19
2023-05-25T16:48:13.755Z,40.17
2023-05-25T16:49:13.663Z,40.18
2023-05-25T16:50:13.605Z,40.17
2023-05-25T16:51:13.562Z,40.19
2023-05-25T16:52:13.489Z,40.14
2023-05-25T16:53:13.431Z,40.15
2023-05-25T16:54:13.371Z,40.12
2023-05-25T16:55:13.319Z,40.13
2023-05-25T16:56:13.257Z,40.16
2023-05-25T16:57:13.193Z,40.12
2023-05-25T16:58:13.137Z,40.08
2023-05-25T16:59:13.083Z,40.09
2023-05-25T17:00:13.023Z,40.12
2023-05-25T17:01:12.999Z,40.05
2023-05-25T17:02:12.915Z,40.12
2023-05-25T17:03:12.935Z,40.07
2023-05-25T17:04:12.862Z,40.08
2023-05-25T17:05:12.752Z,40.09
2023-05-25T17:06:12.694Z,40.04
2023-05-25T17:07:12.638Z,40.05
2023-05-25T17:08:12.592Z,40.08
2023-05-25T17:09:12.537Z,40.09
2023-05-25T17:10:12.486Z,40.07
2023-05-25T17:11:12.422Z,40.08
2023-05-25T17:12:12.390Z,40.07
2023-05-25T17:13:12.322Z,40.03
2023-05-25T17:14:12.262Z,40.04
2023-05-25T17:15:12.206Z,40.03
2023-05-25T17:16:12.195Z,40.02
2023-05-25T17:17:12.081Z,40.05
2023-05-25T17:18:12.046Z,40.02
2023-05-25T17:19:11.982Z,40.04
2023-05-25T17:20:11.963Z,40.00
2023-05-25T17:21:11.866Z,40.03
2023-05-25T17:22:11.810Z,40.03
2023-05-25T17:23:11.755Z,40.03
2023-05-25T17:24:11.723Z,39.97
2023-05-25T17:25:11.665Z,40.03
2023-05-25T17:26:11.602Z,40.07
2023-05-25T17:27:11.533Z,40.00
2023-05-25T17:28:11.492Z,40.04
2023-05-25T17:29:11.423Z,40.01
2023-05-25T17:30:11.368Z,39.97
2023-05-25T17:31:11.363Z,39.97
2023-05-25T17:32:11.258Z,40.01
2023-05-25T17:33:11.298Z,39.99
2023-05-25T17:34:11.146Z,40.01
2023-05-25T17:35:11.087Z,40.00
2023-05-25T17:36:11.105Z,40.01
2023-05-25T17:37:10.955Z,40.04
2023-05-25T17:38:10.934Z,40.01
2023-05-25T17:39:10.881Z,39.99
2023-05-25T17:40:10.829Z,40.01
2023-05-25T17:41:10.799Z,40.00
2023-05-25T17:42:10.732Z,40.02
2023-05-25T17:43:10.667Z,40.00
2023-05-25T17:44:10.622Z,39.99
2023-05-25T17:45:10.591Z,40.00
2023-05-25T17:46:10.559Z,40.02
2023-05-25T17:47:11.319Z,40.01
2023-05-25T17:48:10.493Z,39.97
2023-05-25T17:49:10.368Z,39.97
2023-05-25T17:50:10.334Z,39.93
2023-05-25T17:51:10.283Z,39.97
2023-05-25T17:52:10.224Z,39.96
2023-05-25T17:53:10.172Z,39.96
2023-05-25T17:54:10.129Z,39.97
2023-05-25T17:55:10.107Z,40.02
2023-05-25T17:56:10.029Z,39.98
2023-05-25T17:57:09.977Z,39.99
2023-05-25T17:58:09.927Z,40.00
2023-05-25T17:59:09.909Z,40.00
2023-05-25T18:00:09.851Z,40.02
2023-05-25T18:02:09.840Z,39.96
2023-05-25T18:03:09.833Z,39.94
2023-05-25T18:04:09.864Z,39.99
2023-05-25T18:05:09.626Z,39.96
2023-05-25T18:06:09.550Z,39.97
2023-05-25T18:07:09.499Z,39.94
2023-05-25T18:08:09.473Z,39.93
2023-05-25T18:09:09.418Z,39.97
2023-05-25T18:10:09.386Z,39.98
2023-05-25T18:11:09.346Z,39.96
2023-05-25T18:12:09.304Z,39.98
2023-05-25T18:13:09.260Z,39.98
2023-05-25T18:14:09.221Z,40.01
2023-05-25T18:15:09.176Z,39.98
2023-05-25T18:16:09.138Z,39.94
2023-05-25T18:17:09.202Z,39.95
2023-05-25T18:18:09.113Z,39.96
2023-05-25T18:19:09.004Z,39.96
2023-05-25T18:20:09.013Z,39.97
2023-05-25T18:21:08.929Z,39.98
2023-05-25T18:22:08.873Z,39.97
2023-05-25T18:23:08.848Z,39.99
2023-05-25T18:24:08.787Z,39.96
2023-05-25T18:25:08.760Z,39.98
2023-05-25T18:26:08.714Z,40.10
2023-05-25T18:27:08.661Z,39.99
2023-05-25T18:28:08.627Z,39.99
2023-05-25T18:29:08.586Z,40.02
2023-05-25T18:30:08.539Z,39.95
2023-05-25T18:31:08.549Z,40.05
2023-05-25T18:32:08.460Z,40.06
2023-05-25T18:33:08.618Z,40.12
2023-05-25T18:34:08.389Z,40.07
2023-05-25T18:35:08.355Z,40.07
2023-05-25T18:36:08.295Z,40.04
2023-05-25T18:37:08.260Z,39.99
2023-05-25T18:38:08.209Z,40.04
2023-05-25T18:39:08.178Z,40.07
2023-05-25T18:40:08.144Z,40.05
2023-05-25T18:41:08.108Z,40.03
2023-05-25T18:42:08.039Z,40.03
2023-05-25T18:43:08.031Z,40.05
2023-05-25T18:44:07.978Z,39.98
2023-05-25T18:45:07.926Z,39.96
2023-05-25T18:46:07.941Z,40.00
2023-05-25T18:47:07.841Z,39.95
2023-05-25T18:48:07.843Z,39.96
2023-05-25T18:49:07.760Z,39.94
2023-05-25T18:50:07.721Z,39.98
2023-05-25T18:51:07.673Z,40.01
2023-05-25T18:52:07.615Z,39.95
2023-05-25T18:53:07.585Z,40.01
2023-05-25T18:54:07.525Z,40.01
2023-05-25T18:55:07.494Z,39.97
2023-05-25T18:56:07.452Z,39.95
2023-05-25T18:57:07.403Z,39.96
2023-05-25T18:58:07.346Z,39.95
2023-05-25T18:59:07.314Z,39.95
2023-05-25T19:00:07.371Z,39.94
2023-05-25T19:01:07.230Z,39.95
2023-05-25T19:02:07.260Z,39.99
2023-05-25T19:03:07.206Z,39.99
2023-05-25T19:04:07.145Z,39.96
2023-05-25T19:05:07.041Z,39.95
2023-05-25T19:06:07.005Z,39.97
2023-05-25T19:07:06.942Z,39.95
2023-05-25T19:08:06.891Z,39.94
2023-05-25T19:09:06.853Z,39.95
2023-05-25T19:10:06.815Z,39.96
2023-05-25T19:11:06.817Z,39.95
2023-05-25T19:12:06.764Z,39.96
2023-05-25T19:13:06.680Z,39.95
2023-05-25T19:14:06.630Z,39.96
2023-05-25T19:15:06.597Z,39.96
2023-05-25T19:16:06.612Z,39.93
2023-05-25T19:17:06.501Z,39.95
2023-05-25T19:18:06.525Z,39.95
2023-05-25T19:19:06.423Z,39.93
2023-05-25T19:20:06.492Z,39.95
2023-05-25T19:21:06.351Z,39.95
2023-05-25T19:22:06.318Z,39.93
2023-05-25T19:23:06.280Z,39.92
2023-05-25T19:24:06.238Z,39.96
2023-05-25T19:25:06.183Z,39.95
2023-05-25T19:26:06.119Z,39.97
2023-05-25T19:27:06.097Z,39.95
2023-05-25T19:28:06.049Z,39.96
2023-05-25T19:29:06.012Z,39.95
2023-05-25T19:30:05.964Z,39.92
2023-05-25T19:31:05.919Z,39.93
2023-05-25T19:32:06.000Z,39.92
2023-05-25T19:33:05.894Z,39.96
2023-05-25T19:34:05.780Z,39.98
2023-05-25T19:35:05.751Z,39.96
2023-05-25T19:36:05.692Z,39.96
2023-05-25T19:37:11.563Z,39.96
2023-05-25T19:38:06.612Z,39.92
2023-05-25T19:39:05.431Z,39.97
2023-05-25T19:40:05.338Z,39.93
2023-05-25T19:41:05.228Z,40.00
2023-05-25T19:42:05.117Z,39.94
2023-05-25T19:43:05.017Z,39.96
2023-05-25T19:44:04.898Z,39.97
2023-05-25T19:45:04.796Z,39.96
2023-05-25T19:46:04.772Z,39.97
2023-05-25T19:47:04.703Z,39.96
2023-05-25T19:48:04.731Z,39.97
2023-05-25T19:49:04.594Z,39.92
2023-05-25T19:50:04.528Z,39.93
2023-05-25T19:51:04.440Z,39.98
2023-05-25T19:52:04.368Z,39.96
2023-05-25T19:53:04.322Z,39.97
2023-05-25T19:54:04.262Z,39.94
2023-05-25T19:55:04.209Z,39.97
2023-05-25T19:56:04.124Z,39.96
2023-05-25T19:57:04.036Z,39.98
2023-05-25T19:58:03.939Z,39.98
2023-05-25T19:59:03.850Z,39.96
2023-05-25T20:00:04.751Z,39.98
2023-05-25T20:01:03.734Z,39.96
2023-05-25T20:02:03.588Z,39.97
2023-05-25T20:03:03.662Z,39.97
2023-05-25T20:04:03.478Z,39.98
2023-05-25T20:05:03.426Z,40.00
2023-05-25T20:06:03.365Z,39.96
2023-05-25T20:07:03.315Z,39.99
2023-05-25T20:08:03.252Z,39.96
2023-05-25T20:09:03.192Z,39.98
2023-05-25T20:10:03.200Z,40.01
2023-05-25T20:11:03.020Z,39.97
2023-05-25T20:12:02.885Z,40.06
2023-05-25T20:13:02.841Z,39.99
2023-05-25T20:14:02.729Z,39.95
2023-05-25T20:15:02.670Z,39.92
2023-05-25T20:16:02.615Z,39.99
2023-05-25T20:17:02.492Z,39.92
2023-05-25T20:18:02.439Z,39.95
2023-05-25T20:19:02.336Z,39.98
2023-05-25T20:20:02.296Z,39.97
2023-05-25T20:21:02.152Z,39.96
2023-05-25T20:22:02.065Z,39.98
2023-05-25T20:23:01.966Z,39.95
2023-05-25T20:24:01.893Z,40.04
2023-05-25T20:25:01.807Z,40.01
2023-05-25T20:26:01.733Z,39.94
2023-05-25T20:27:01.639Z,39.97
2023-05-25T20:28:01.541Z,39.98
2023-05-25T20:29:01.443Z,40.00
2023-05-25T20:30:01.390Z,39.97
2023-05-25T20:31:01.361Z,39.99
2023-05-25T20:32:01.301Z,40.00
2023-05-25T20:33:01.226Z,40.02
2023-05-25T20:34:01.079Z,40.02
2023-05-25T20:35:00.997Z,40.00
2023-05-25T20:36:00.997Z,39.99
2023-05-25T20:37:00.820Z,39.95
2023-05-25T20:38:00.744Z,40.01
2023-05-25T20:39:00.635Z,40.03
2023-05-25T20:40:00.523Z,39.99
2023-05-25T20:41:00.413Z,40.01
2023-05-25T20:42:00.342Z,39.95
2023-05-25T20:43:00.267Z,40.02
2023-05-25T20:44:00.197Z,39.99
2023-05-25T20:45:00.095Z,40.02
2023-05-25T20:45:59.993Z,39.99
2023-05-25T20:46:59.861Z,40.00
2023-05-25T20:47:59.818Z,39.95
2023-05-25T20:48:59.654Z,39.97
2023-05-25T20:49:59.538Z,40.00
2023-05-25T20:50:59.444Z,40.01
2023-05-25T20:51:59.348Z,39.99
2023-05-25T20:52:59.327Z,39.96
2023-05-25T20:53:59.216Z,39.95
2023-05-25T20:54:59.124Z,39.95
2023-05-25T20:55:59.036Z,39.91
2023-05-25T20:56:58.932Z,39.97
2023-05-25T20:57:58.842Z,39.96
2023-05-25T20:58:58.766Z,39.96
2023-05-25T20:59:58.672Z,39.95
2023-05-25T21:00:58.573Z,39.98
2023-05-25T21:01:58.597Z,39.99
2023-05-25T21:02:58.451Z,40.01
2023-05-25T21:03:58.357Z,39.97
2023-05-25T21:04:58.285Z,39.95
2023-05-25T21:05:58.185Z,39.96
2023-05-25T21:06:58.080Z,39.95
2023-05-25T21:07:57.968Z,39.94
2023-05-25T21:08:57.868Z,39.91
2023-05-25T21:09:57.762Z,39.92
2023-05-25T21:10:57.691Z,39.94
2023-05-25T21:11:57.609Z,39.97
2023-05-25T21:12:57.509Z,39.93
2023-05-25T21:13:57.408Z,39.96
2023-05-25T21:14:57.307Z,39.99
2023-05-25T21:15:57.306Z,39.99
2023-05-25T21:16:57.212Z,39.99
2023-05-25T21:17:57.166Z,39.97
2023-05-25T21:18:57.083Z,39.95
2023-05-25T21:19:57.002Z,39.94
2023-05-25T21:20:56.880Z,39.93
2023-05-25T21:21:56.778Z,39.96
2023-05-25T21:22:56.701Z,39.88
2023-05-25T21:23:56.588Z,39.94
2023-05-25T21:24:56.501Z,39.90
2023-05-25T21:25:56.382Z,39.94
2023-05-25T21:26:56.349Z,39.89
2023-05-25T21:27:57.189Z,39.93
2023-05-25T21:28:56.135Z,39.93
2023-05-25T21:29:56.039Z,39.90
2023-05-25T21:30:55.962Z,39.89
2023-05-25T21:31:55.971Z,39.94
2023-05-25T21:32:55.882Z,39.92
2023-05-25T21:33:55.734Z,39.96
2023-05-25T21:34:55.601Z,39.89
2023-05-25T21:35:55.490Z,39.92
2023-05-25T21:36:55.439Z,39.90
2023-05-25T21:37:55.343Z,39.86
2023-05-25T21:38:55.223Z,39.92
2023-05-25T21:39:55.122Z,39.88
2023-05-25T21:40:55.010Z,39.88
2023-05-25T21:41:54.901Z,39.97
2023-05-25T21:42:54.860Z,39.92
2023-05-25T21:43:54.744Z,39.92
2023-05-25T21:44:54.640Z,39.93
2023-05-25T21:45:54.560Z,39.89
2023-05-25T21:46:54.466Z,39.95
2023-05-25T21:47:54.426Z,39.87
2023-05-25T21:48:54.275Z,39.87
2023-05-25T21:49:54.165Z,39.93
2023-05-25T21:50:54.123Z,39.92
2023-05-25T21:51:54.017Z,39.89
2023-05-25T21:52:53.900Z,39.88
2023-05-25T21:53:53.803Z,39.92
2023-05-25T21:54:53.692Z,39.87
2023-05-25T21:55:53.579Z,39.89
2023-05-25T21:56:53.482Z,39.88
2023-05-25T21:57:53.375Z,39.87
2023-05-25T21:58:53.312Z,39.89
2023-05-25T21:59:54.176Z,39.89
2023-05-25T22:00:53.116Z,39.88
2023-05-25T22:01:53.002Z,39.85
2023-05-25T22:02:52.989Z,39.87
2023-05-25T22:03:52.789Z,39.92
2023-05-25T22:04:52.725Z,39.87
2023-05-25T22:05:52.651Z,39.89
2023-05-25T22:06:52.538Z,39.88
2023-05-25T22:07:54.231Z,39.91
2023-05-25T22:08:52.350Z,39.87
2023-05-25T22:09:52.242Z,39.85
2023-05-25T22:10:52.131Z,39.87
2023-05-25T22:11:52.019Z,39.88
2023-05-25T22:12:51.898Z,39.87
2023-05-25T22:13:51.787Z,39.89
2023-05-25T22:14:51.682Z,39.85
2023-05-25T22:15:51.563Z,39.88
2023-05-25T22:16:51.522Z,39.83
2023-05-25T22:17:51.379Z,39.87
2023-05-25T22:18:51.217Z,39.91
2023-05-25T22:20:03.054Z,39.85
2023-05-25T22:20:52.019Z,39.83
2023-05-25T22:21:50.873Z,39.84
2023-05-25T22:22:50.754Z,39.86
2023-05-25T22:23:50.642Z,39.83
2023-05-25T22:24:50.530Z,39.88
2023-05-25T22:25:50.441Z,39.86
2023-05-25T22:26:50.306Z,39.85
2023-05-25T22:27:50.186Z,39.87
2023-05-25T22:28:50.078Z,39.84
2023-05-25T22:29:49.970Z,39.87
2023-05-25T22:30:49.900Z,39.86
2023-05-25T22:31:49.740Z,39.86
2023-05-25T22:32:49.711Z,39.85
2023-05-25T22:33:49.509Z,39.87
2023-05-25T22:34:49.411Z,39.88
2023-05-25T22:35:49.296Z,39.83
2023-05-25T22:36:49.182Z,39.87
2023-05-25T22:37:49.066Z,39.85
2023-05-25T22:38:48.965Z,39.90
2023-05-25T22:39:48.843Z,39.83
2023-05-25T22:40:48.730Z,39.83
2023-05-25T22:41:48.621Z,39.90
2023-05-25T22:42:48.514Z,39.83
2023-05-25T22:43:48.400Z,39.80
2023-05-25T22:44:48.305Z,39.88
2023-05-25T22:45:48.193Z,39.81
2023-05-25T22:46:48.177Z,39.80
2023-05-25T22:47:48.036Z,39.87
2023-05-25T22:48:47.871Z,39.80
2023-05-25T22:49:47.761Z,39.86
2023-05-25T22:50:47.663Z,39.84
2023-05-25T22:51:47.568Z,39.86
2023-05-25T22:52:47.449Z,39.80
2023-05-25T22:53:47.338Z,39.83
2023-05-25T22:54:47.245Z,39.79
2023-05-25T22:55:47.525Z,39.79
2023-05-25T22:56:47.033Z,39.83
2023-05-25T22:57:46.929Z,39.81
2023-05-25T22:58:46.829Z,39.79
2023-05-25T22:59:46.720Z,39.80
2023-05-25T23:00:46.623Z,39.82
2023-05-25T23:01:46.674Z,39.80
2023-05-25T23:02:46.549Z,39.79
2023-05-25T23:03:46.502Z,39.80
2023-05-25T23:04:46.312Z,39.85
2023-05-25T23:05:46.525Z,39.79
2023-05-25T23:06:46.117Z,39.84
2023-05-25T23:07:46.007Z,39.81
2023-05-25T23:08:45.911Z,39.83
2023-05-25T23:09:45.817Z,39.84
2023-05-25T23:10:45.708Z,39.80
2023-05-25T23:11:45.702Z,39.82
2023-05-25T23:12:45.699Z,39.80
2023-05-25T23:13:45.582Z,39.77
2023-05-25T23:14:45.496Z,39.81
2023-05-25T23:15:45.572Z,39.82
2023-05-25T23:16:45.367Z,39.79
2023-05-25T23:17:45.256Z,39.82
2023-05-25T23:18:45.098Z,39.80
2023-05-25T23:19:44.997Z,39.82
2023-05-25T23:20:45.015Z,39.78
2023-05-25T23:21:44.834Z,39.81
2023-05-25T23:22:44.698Z,39.81
2023-05-25T23:23:44.607Z,39.80
2023-05-25T23:24:44.509Z,39.82
2023-05-25T23:25:44.648Z,39.71
2023-05-25T23:26:44.300Z,39.78
2023-05-25T23:27:44.215Z,39.81
2023-05-25T23:28:44.112Z,39.77
2023-05-25T23:29:43.973Z,39.77
2023-05-25T23:30:43.877Z,39.80
2023-05-25T23:31:43.918Z,39.80
2023-05-25T23:32:43.764Z,39.83
2023-05-25T23:33:43.604Z,39.81
2023-05-25T23:34:43.496Z,39.82
2023-05-25T23:35:43.708Z,39.84
2023-05-25T23:36:43.365Z,39.77
2023-05-25T23:37:43.269Z,39.81
2023-05-25T23:38:43.161Z,39.77
2023-05-25T23:39:43.051Z,39.82
2023-05-25T23:40:42.961Z,39.76
2023-05-25T23:41:42.949Z,39.81
2023-05-25T23:42:42.847Z,39.78
2023-05-25T23:43:42.752Z,39.85
2023-05-25T23:44:42.656Z,39.76
2023-05-25T23:45:42.593Z,39.84
2023-05-25T23:46:42.443Z,39.82
2023-05-25T23:47:42.368Z,39.81
2023-05-25T23:48:42.251Z,39.78
2023-05-25T23:49:42.135Z,39.83
2023-05-25T23:50:42.037Z,39.81
2023-05-25T23:51:41.988Z,39.78
2023-05-25T23:52:41.873Z,39.81
2023-05-25T23:53:41.787Z,39.83
2023-05-25T23:54:41.671Z,39.82
2023-05-25T23:55:41.570Z,39.80
2023-05-25T23:56:41.470Z,39.83
2023-05-25T23:57:41.392Z,39.82
2023-05-25T23:58:41.269Z,39.76
2023-05-25T23:59:41.183Z,39.77
